KDPA/DPA METAR and TAF weather

Enter ICAO airport designator
Station Type Date Time Source
KDPA METAR 2018/07/21 22:52 UTC NOAA

KDPA 212252Z 35014KT 10SM CLR 24/18 A2980 RMK AO2 SLP086 T02440183


Station Type Date Time Source
KDPA Decoded METAR 2018/07/21 22:52 UTC NOAA

CHICAGO/WEST CH DUPAGE, IL, United States (KDPA) 41-54N 88-15W 230M
Jul 21, 2018 - 06:52 PM EDT / 2018.07.21 2252 UTC
Wind: from the N (350 degrees) at 16 MPH (14 KT):0
Visibility: 10 mile(s):0
Sky conditions: clear
Temperature: 75.9 F (24.4 C)
Dew Point: 64.9 F (18.3 C)
Relative Humidity: 68%
Pressure (altimeter): 29.8 in. Hg (1009 hPa)
ob: KDPA 212252Z 35014KT 10SM CLR 24/18 A2980 RMK AO2 SLP086 T02440183
cycle: 23

Station Type Date Time Source
KDPA TAF 2018/07/21 21:03 UTC NOAA

TAF
AMD KDPA 212101Z 2121/2218 36014G21KT P6SM VCSH SCT025 BKN035
TEMPO 2121/2201 3SM SHRA BKN025
FM220400 36012KT P6SM VCSH SCT006 BKN010
FM221300 02010KT P6SM VCSH SCT010 BKN018 PROB30 2213/2218 -SHRA BKN010


Example: see airport list